sensor_id;sensor_type;location;lat;lon;timestamp;pressure;altitude;pressure_sealevel;temperature;humidity
46087;BME280;31824;49.648;8.640;2023-04-04T00:00:30;101381.16;;;1.75;100.00
46087;BME280;31824;49.648;8.640;2023-04-04T00:03:32;101373.00;;;1.90;100.00
46087;BME280;31824;49.648;8.640;2023-04-04T00:06:35;101369.94;;;1.93;100.00
46087;BME280;31824;49.648;8.640;2023-04-04T00:09:38;101377.97;;;1.89;100.00
46087;BME280;31824;49.648;8.640;2023-04-04T00:12:40;101371.34;;;1.96;100.00
46087;BME280;31824;49.648;8.640;2023-04-04T00:15:42;101372.41;;;1.80;100.00
46087;BME280;31824;49.648;8.640;2023-04-04T00:18:44;101358.59;;;1.68;100.00
46087;BME280;31824;49.648;8.640;2023-04-04T00:21:47;101369.19;;;1.69;100.00
46087;BME280;31824;49.648;8.640;2023-04-04T00:24:50;101366.16;;;1.66;100.00
46087;BME280;31824;49.648;8.640;2023-04-04T00:27:52;101359.88;;;1.53;100.00
46087;BME280;31824;49.648;8.640;2023-04-04T00:30:57;101367.66;;;1.53;100.00
46087;BME280;31824;49.648;8.640;2023-04-04T00:33:59;101368.84;;;1.55;100.00
46087;BME280;31824;49.648;8.640;2023-04-04T00:37:02;101355.63;;;1.54;100.00
46087;BME280;31824;49.648;8.640;2023-04-04T00:40:06;101359.09;;;1.65;100.00
46087;BME280;31824;49.648;8.640;2023-04-04T00:43:09;101350.03;;;1.50;100.00
46087;BME280;31824;49.648;8.640;2023-04-04T00:46:11;101349.81;;;1.49;100.00
46087;BME280;31824;49.648;8.640;2023-04-04T00:49:16;101338.47;;;1.54;100.00
46087;BME280;31824;49.648;8.640;2023-04-04T00:52:19;101336.09;;;1.56;100.00
46087;BME280;31824;49.648;8.640;2023-04-04T00:55:23;101332.38;;;1.48;100.00
46087;BME280;31824;49.648;8.640;2023-04-04T00:58:28;101334.69;;;1.52;100.00
46087;BME280;31824;49.648;8.640;2023-04-04T01:01:30;101330.50;;;1.47;100.00
46087;BME280;31824;49.648;8.640;2023-04-04T01:04:34;101338.38;;;1.65;100.00
46087;BME280;31824;49.648;8.640;2023-04-04T01:07:39;101337.13;;;1.45;100.00
46087;BME280;31824;49.648;8.640;2023-04-04T01:10:47;101339.38;;;1.55;100.00
46087;BME280;31824;49.648;8.640;2023-04-04T01:13:51;101336.53;;;1.59;100.00
46087;BME280;31824;49.648;8.640;2023-04-04T01:16:53;101332.81;;;1.57;100.00
46087;BME280;31824;49.648;8.640;2023-04-04T01:20:04;101341.53;;;1.51;100.00
46087;BME280;31824;49.648;8.640;2023-04-04T01:23:27;101336.09;;;1.56;100.00
46087;BME280;31824;49.648;8.640;2023-04-04T01:26:35;101324.16;;;1.45;100.00
46087;BME280;31824;49.648;8.640;2023-04-04T01:29:38;101326.31;;;1.42;100.00
46087;BME280;31824;49.648;8.640;2023-04-04T01:32:44;101332.47;;;1.37;100.00
46087;BME280;31824;49.648;8.640;2023-04-04T01:35:59;101316.31;;;1.56;100.00
46087;BME280;31824;49.648;8.640;2023-04-04T01:39:06;101322.16;;;1.61;100.00
46087;BME280;31824;49.648;8.640;2023-04-04T01:42:14;101320.66;;;1.39;100.00
46087;BME280;31824;49.648;8.640;2023-04-04T01:45:20;101315.28;;;1.37;100.00
46087;BME280;31824;49.648;8.640;2023-04-04T01:48:24;101313.63;;;1.38;100.00
46087;BME280;31824;49.648;8.640;2023-04-04T01:51:31;101316.59;;;1.16;100.00
46087;BME280;31824;49.648;8.640;2023-04-04T01:54:33;101312.84;;;1.14;100.00
46087;BME280;31824;49.648;8.640;2023-04-04T01:57:43;101301.25;;;1.24;100.00
46087;BME280;31824;49.648;8.640;2023-04-04T02:00:47;101301.50;;;1.25;100.00
46087;BME280;31824;49.648;8.640;2023-04-04T02:03:50;101301.03;;;1.22;100.00
46087;BME280;31824;49.648;8.640;2023-04-04T02:06:52;101315.19;;;1.13;100.00
46087;BME280;31824;49.648;8.640;2023-04-04T02:09:54;101312.38;;;1.11;100.00
46087;BME280;31824;49.648;8.640;2023-04-04T02:12:57;101315.66;;;1.16;100.00
46087;BME280;31824;49.648;8.640;2023-04-04T02:15:59;101310.50;;;1.16;100.00
46087;BME280;31824;49.648;8.640;2023-04-04T02:19:02;101319.88;;;1.21;100.00
46087;BME280;31824;49.648;8.640;2023-04-04T02:22:09;101319.13;;;1.22;100.00
46087;BME280;31824;49.648;8.640;2023-04-04T02:25:11;101312.59;;;1.18;100.00
46087;BME280;31824;49.648;8.640;2023-04-04T02:28:14;101306.94;;;1.21;100.00
46087;BME280;31824;49.648;8.640;2023-04-04T02:31:16;101319.47;;;1.07;100.00
46087;BME280;31824;49.648;8.640;2023-04-04T02:34:17;101314.09;;;1.05;100.00
46087;BME280;31824;49.648;8.640;2023-04-04T02:37:21;101315.22;;;1.07;100.00
46087;BME280;31824;49.648;8.640;2023-04-04T02:40:25;101315.44;;;1.09;100.00
46087;BME280;31824;49.648;8.640;2023-04-04T02:43:29;101310.56;;;0.99;100.00
46087;BME280;31824;49.648;8.640;2023-04-04T02:46:31;101312.72;;;0.96;100.00
46087;BME280;31824;49.648;8.640;2023-04-04T02:49:37;101307.94;;;1.05;100.00
46087;BME280;31824;49.648;8.640;2023-04-04T02:52:41;101311.75;;;1.01;100.00
46087;BME280;31824;49.648;8.640;2023-04-04T02:55:51;101308.25;;;0.95;100.00
46087;BME280;31824;49.648;8.640;2023-04-04T02:58:55;101316.22;;;0.96;100.00
46087;BME280;31824;49.648;8.640;2023-04-04T03:01:57;101311.53;;;0.94;100.00
46087;BME280;31824;49.648;8.640;2023-04-04T03:04:59;101300.03;;;0.92;100.00
46087;BME280;31824;49.648;8.640;2023-04-04T03:08:01;101304.25;;;0.97;100.00
46087;BME280;31824;49.648;8.640;2023-04-04T03:11:05;101300.72;;;0.96;100.00
46087;BME280;31824;49.648;8.640;2023-04-04T03:14:09;101303.28;;;0.96;100.00
46087;BME280;31824;49.648;8.640;2023-04-04T03:17:15;101300.25;;;0.93;100.00
46087;BME280;31824;49.648;8.640;2023-04-04T03:20:20;101304.06;;;0.84;100.00
46087;BME280;31824;49.648;8.640;2023-04-04T03:23:23;101303.13;;;0.89;100.00
46087;BME280;31824;49.648;8.640;2023-04-04T03:26:24;101302.00;;;0.76;100.00
46087;BME280;31824;49.648;8.640;2023-04-04T03:29:30;101300.81;;;0.79;100.00
46087;BME280;31824;49.648;8.640;2023-04-04T03:32:33;101296.16;;;0.71;100.00
46087;BME280;31824;49.648;8.640;2023-04-04T03:35:41;101290.53;;;0.62;100.00
46087;BME280;31824;49.648;8.640;2023-04-04T03:38:43;101297.84;;;0.59;100.00
46087;BME280;31824;49.648;8.640;2023-04-04T03:41:45;101290.75;;;0.64;100.00
46087;BME280;31824;49.648;8.640;2023-04-04T03:44:49;101291.72;;;0.64;100.00
46087;BME280;31824;49.648;8.640;2023-04-04T03:48:00;101298.81;;;0.54;100.00
46087;BME280;31824;49.648;8.640;2023-04-04T03:51:07;101286.13;;;0.50;100.00
46087;BME280;31824;49.648;8.640;2023-04-04T03:54:10;101286.13;;;0.50;100.00
46087;BME280;31824;49.648;8.640;2023-04-04T03:57:12;101300.53;;;0.31;100.00
46087;BME280;31824;49.648;8.640;2023-04-04T04:00:18;101285.75;;;0.36;100.00
46087;BME280;31824;49.648;8.640;2023-04-04T04:03:20;101294.41;;;0.36;100.00
46087;BME280;31824;49.648;8.640;2023-04-04T04:06:22;101295.13;;;0.35;100.00
46087;BME280;31824;49.648;8.640;2023-04-04T04:09:24;101295.09;;;0.41;100.00
46087;BME280;31824;49.648;8.640;2023-04-04T04:12:28;101292.75;;;0.37;100.00
46087;BME280;31824;49.648;8.640;2023-04-04T04:15:32;101291.59;;;0.35;100.00
46087;BME280;31824;49.648;8.640;2023-04-04T04:18:37;101293.50;;;0.36;100.00
46087;BME280;31824;49.648;8.640;2023-04-04T04:21:44;101289.03;;;0.35;100.00
46087;BME280;31824;49.648;8.640;2023-04-04T04:24:47;101293.75;;;0.31;100.00
46087;BME280;31824;49.648;8.640;2023-04-04T04:27:49;101294.66;;;0.32;100.00
46087;BME280;31824;49.648;8.640;2023-04-04T04:30:56;101288.34;;;0.24;100.00
46087;BME280;31824;49.648;8.640;2023-04-04T04:33:58;101291.41;;;0.22;100.00
46087;BME280;31824;49.648;8.640;2023-04-04T04:37:03;101298.69;;;0.19;100.00
46087;BME280;31824;49.648;8.640;2023-04-04T04:40:14;101292.59;;;0.18;100.00
46087;BME280;31824;49.648;8.640;2023-04-04T04:43:23;101297.75;;;0.24;100.00
46087;BME280;31824;49.648;8.640;2023-04-04T04:46:30;101291.16;;;0.20;100.00
46087;BME280;31824;49.648;8.640;2023-04-04T04:49:34;101301.28;;;0.13;100.00
46087;BME280;31824;49.648;8.640;2023-04-04T04:52:40;101304.81;;;0.19;100.00
46087;BME280;31824;49.648;8.640;2023-04-04T04:55:42;101299.66;;;0.19;100.00
46087;BME280;31824;49.648;8.640;2023-04-04T04:58:44;101296.34;;;0.14;100.00
46087;BME280;31824;49.648;8.640;2023-04-04T05:01:55;101299.16;;;0.16;100.00
46087;BME280;31824;49.648;8.640;2023-04-04T05:04:59;101307.63;;;0.21;100.00
46087;BME280;31824;49.648;8.640;2023-04-04T05:08:01;101307.88;;;0.22;100.00
46087;BME280;31824;49.648;8.640;2023-04-04T05:11:04;101307.63;;;0.15;100.00
46087;BME280;31824;49.648;8.640;2023-04-04T05:14:08;101306.69;;;0.20;100.00
46087;BME280;31824;49.648;8.640;2023-04-04T05:17:19;101315.63;;;0.11;100.00
46087;BME280;31824;49.648;8.640;2023-04-04T05:20:26;101318.47;;;0.12;100.00
46087;BME280;31824;49.648;8.640;2023-04-04T05:23:30;101310.94;;;0.14;100.00
46087;BME280;31824;49.648;8.640;2023-04-04T05:26:32;101315.88;;;0.12;100.00
46087;BME280;31824;49.648;8.640;2023-04-04T05:29:34;101316.09;;;0.14;100.00
46087;BME280;31824;49.648;8.640;2023-04-04T05:32:39;101321.28;;;0.03;100.00
46087;BME280;31824;49.648;8.640;2023-04-04T05:35:46;101314.47;;;0.09;100.00
46087;BME280;31824;49.648;8.640;2023-04-04T05:38:53;101323.63;;;0.18;100.00
46087;BME280;31824;49.648;8.640;2023-04-04T05:42:01;101319.59;;;0.20;100.00
46087;BME280;31824;49.648;8.640;2023-04-04T05:45:09;101320.50;;;0.32;100.00
46087;BME280;31824;49.648;8.640;2023-04-04T05:48:13;101313.69;;;0.32;100.00
46087;BME280;31824;49.648;8.640;2023-04-04T05:51:23;101319.84;;;0.27;100.00
46087;BME280;31824;49.648;8.640;2023-04-04T05:54:43;101315.38;;;0.21;100.00
46087;BME280;31824;49.648;8.640;2023-04-04T05:57:50;101320.00;;;0.40;100.00
46087;BME280;31824;49.648;8.640;2023-04-04T06:01:05;101328.44;;;0.45;100.00
46087;BME280;31824;49.648;8.640;2023-04-04T06:04:08;101321.19;;;0.48;100.00
46087;BME280;31824;49.648;8.640;2023-04-04T06:07:11;101325.41;;;0.53;100.00
46087;BME280;31824;49.648;8.640;2023-04-04T06:10:13;101323.97;;;0.55;100.00
46087;BME280;31824;49.648;8.640;2023-04-04T06:13:15;101328.44;;;0.56;100.00
46087;BME280;31824;49.648;8.640;2023-04-04T06:16:23;101327.41;;;0.73;100.00
46087;BME280;31824;49.648;8.640;2023-04-04T06:19:27;101327.69;;;0.69;100.00
46087;BME280;31824;49.648;8.640;2023-04-04T06:22:29;101336.13;;;0.67;100.00
46087;BME280;31824;49.648;8.640;2023-04-04T06:25:32;101338.44;;;0.83;100.00
46087;BME280;31824;49.648;8.640;2023-04-04T06:28:35;101341.53;;;0.69;100.00
46087;BME280;31824;49.648;8.640;2023-04-04T06:31:38;101341.94;;;0.83;100.00
46087;BME280;31824;49.648;8.640;2023-04-04T06:34:50;101345.66;;;0.97;100.00
46087;BME280;31824;49.648;8.640;2023-04-04T06:38:01;101348.25;;;0.97;100.00
46087;BME280;31824;49.648;8.640;2023-04-04T06:41:07;101349.38;;;0.99;100.00
46087;BME280;31824;49.648;8.640;2023-04-04T06:44:12;101353.41;;;0.97;100.00
46087;BME280;31824;49.648;8.640;2023-04-04T06:47:14;101349.75;;;1.19;100.00
46087;BME280;31824;49.648;8.640;2023-04-04T06:50:17;101353.78;;;1.17;100.00
46087;BME280;31824;49.648;8.640;2023-04-04T06:53:22;101351.38;;;1.24;100.00
46087;BME280;31824;49.648;8.640;2023-04-04T06:56:24;101355.19;;;1.15;100.00
46087;BME280;31824;49.648;8.640;2023-04-04T06:59:28;101359.38;;;1.26;100.00
46087;BME280;31824;49.648;8.640;2023-04-04T07:02:33;101365.91;;;1.35;100.00
46087;BME280;31824;49.648;8.640;2023-04-04T07:05:42;101357.63;;;1.43;100.00
46087;BME280;31824;49.648;8.640;2023-04-04T07:08:44;101357.31;;;1.53;100.00
46087;BME280;31824;49.648;8.640;2023-04-04T07:11:46;101359.94;;;1.77;100.00
46087;BME280;31824;49.648;8.640;2023-04-04T07:14:48;101365.66;;;1.69;100.00
46087;BME280;31824;49.648;8.640;2023-04-04T07:17:50;101363.41;;;1.89;100.00
46087;BME280;31824;49.648;8.640;2023-04-04T07:20:53;101367.28;;;2.04;100.00
46087;BME280;31824;49.648;8.640;2023-04-04T07:24:00;101364.06;;;2.18;100.00
46087;BME280;31824;49.648;8.640;2023-04-04T07:27:03;101369.25;;;2.18;100.00
46087;BME280;31824;49.648;8.640;2023-04-04T07:30:06;101359.81;;;2.18;100.00
46087;BME280;31824;49.648;8.640;2023-04-04T07:33:08;101360.34;;;2.34;100.00
46087;BME280;31824;49.648;8.640;2023-04-04T07:36:12;101366.88;;;2.44;100.00
46087;BME280;31824;49.648;8.640;2023-04-04T07:39:15;101356.56;;;2.38;100.00
46087;BME280;31824;49.648;8.640;2023-04-04T07:42:18;101356.50;;;2.62;100.00
46087;BME280;31824;49.648;8.640;2023-04-04T07:45:27;101354.38;;;2.65;100.00
46087;BME280;31824;49.648;8.640;2023-04-04T07:48:29;101359.41;;;2.77;100.00
46087;BME280;31824;49.648;8.640;2023-04-04T07:51:32;101353.44;;;2.83;100.00
46087;BME280;31824;49.648;8.640;2023-04-04T07:54:36;101356.09;;;2.78;100.00
46087;BME280;31824;49.648;8.640;2023-04-04T07:57:38;101349.66;;;3.00;100.00
46087;BME280;31824;49.648;8.640;2023-04-04T08:00:40;101355.94;;;3.08;100.00
46087;BME280;31824;49.648;8.640;2023-04-04T08:03:50;101352.25;;;3.18;100.00
46087;BME280;31824;49.648;8.640;2023-04-04T08:06:55;101346.66;;;3.47;100.00
46087;BME280;31824;49.648;8.640;2023-04-04T08:09:58;101353.84;;;3.55;100.00
46087;BME280;31824;49.648;8.640;2023-04-04T08:13:04;101352.28;;;3.63;100.00
46087;BME280;31824;49.648;8.640;2023-04-04T08:16:06;101353.25;;;3.76;100.00
46087;BME280;31824;49.648;8.640;2023-04-04T08:19:08;101356.97;;;3.65;100.00
46087;BME280;31824;49.648;8.640;2023-04-04T08:22:12;101349.97;;;3.46;100.00
46087;BME280;31824;49.648;8.640;2023-04-04T08:25:14;101358.09;;;3.54;100.00
46087;BME280;31824;49.648;8.640;2023-04-04T08:28:20;101346.84;;;3.80;100.00
46087;BME280;31824;49.648;8.640;2023-04-04T08:31:22;101348.31;;;4.03;100.00
46087;BME280;31824;49.648;8.640;2023-04-04T08:34:24;101351.00;;;3.98;100.00
46087;BME280;31824;49.648;8.640;2023-04-04T08:37:27;101355.91;;;3.89;100.00
46087;BME280;31824;49.648;8.640;2023-04-04T08:40:35;101351.00;;;3.98;100.00
46087;BME280;31824;49.648;8.640;2023-04-04T08:43:42;101344.94;;;3.92;100.00
46087;BME280;31824;49.648;8.640;2023-04-04T08:46:48;101348.72;;;3.94;100.00
46087;BME280;31824;49.648;8.640;2023-04-04T08:49:52;101344.34;;;4.26;100.00
46087;BME280;31824;49.648;8.640;2023-04-04T08:52:56;101338.75;;;4.35;100.00
46087;BME280;31824;49.648;8.640;2023-04-04T08:56:01;101333.13;;;4.45;100.00
46087;BME280;31824;49.648;8.640;2023-04-04T08:59:05;101340.16;;;4.59;100.00
46087;BME280;31824;49.648;8.640;2023-04-04T09:02:20;101335.69;;;4.58;100.00
46087;BME280;31824;49.648;8.640;2023-04-04T09:05:24;101339.56;;;4.54;100.00
46087;BME280;31824;49.648;8.640;2023-04-04T09:08:31;101347.41;;;4.87;100.00
46087;BME280;31824;49.648;8.640;2023-04-04T09:11:43;101335.16;;;4.61;100.00
46087;BME280;31824;49.648;8.640;2023-04-04T09:14:49;101339.53;;;4.67;100.00
46087;BME280;31824;49.648;8.640;2023-04-04T09:17:52;101339.34;;;4.99;100.00
46087;BME280;31824;49.648;8.640;2023-04-04T09:20:55;101337.38;;;4.90;100.00
46087;BME280;31824;49.648;8.640;2023-04-04T09:23:59;101328.22;;;5.20;100.00
46087;BME280;31824;49.648;8.640;2023-04-04T09:27:02;101332.47;;;5.19;100.00
46087;BME280;31824;49.648;8.640;2023-04-04T09:30:11;101329.19;;;5.40;100.00
46087;BME280;31824;49.648;8.640;2023-04-04T09:33:13;101332.13;;;5.56;100.00
46087;BME280;31824;49.648;8.640;2023-04-04T09:36:16;101337.72;;;5.60;100.00
46087;BME280;31824;49.648;8.640;2023-04-04T09:39:20;101343.13;;;5.61;100.00
46087;BME280;31824;49.648;8.640;2023-04-04T09:42:24;101322.97;;;5.13;100.00
46087;BME280;31824;49.648;8.640;2023-04-04T09:45:29;101334.84;;;5.31;100.00
46087;BME280;31824;49.648;8.640;2023-04-04T09:48:39;101330.91;;;5.67;100.00
46087;BME280;31824;49.648;8.640;2023-04-04T09:51:41;101330.66;;;5.86;100.00
46087;BME280;31824;49.648;8.640;2023-04-04T09:54:56;101335.34;;;5.68;100.00
46087;BME280;31824;49.648;8.640;2023-04-04T09:57:59;101332.28;;;5.98;100.00
46087;BME280;31824;49.648;8.640;2023-04-04T10:01:08;101329.81;;;5.72;100.00
46087;BME280;31824;49.648;8.640;2023-04-04T10:04:13;101330.78;;;6.20;100.00
46087;BME280;31824;49.648;8.640;2023-04-04T10:07:17;101329.81;;;5.72;100.00
46087;BME280;31824;49.648;8.640;2023-04-04T10:10:21;101331.97;;;5.42;100.00
46087;BME280;31824;49.648;8.640;2023-04-04T10:13:23;101322.91;;;5.66;100.00
46087;BME280;31824;49.648;8.640;2023-04-04T10:16:26;101315.91;;;5.99;100.00
46087;BME280;31824;49.648;8.640;2023-04-04T10:19:37;101328.84;;;6.47;100.00
46087;BME280;31824;49.648;8.640;2023-04-04T10:22:39;101317.56;;;6.26;100.00
46087;BME280;31824;49.648;8.640;2023-04-04T10:25:45;101327.78;;;6.59;100.00
46087;BME280;31824;49.648;8.640;2023-04-04T10:28:47;101313.63;;;6.57;100.00
46087;BME280;31824;49.648;8.640;2023-04-04T10:31:56;101319.50;;;6.83;100.00
46087;BME280;31824;49.648;8.640;2023-04-04T10:35:02;101310.13;;;6.71;100.00
46087;BME280;31824;49.648;8.640;2023-04-04T10:38:06;101307.97;;;6.88;100.00
46087;BME280;31824;49.648;8.640;2023-04-04T10:41:11;101318.69;;;7.48;100.00
46087;BME280;31824;49.648;8.640;2023-04-04T10:44:23;101316.63;;;7.67;100.00
46087;BME280;31824;49.648;8.640;2023-04-04T10:47:26;101309.84;;;6.97;100.00
46087;BME280;31824;49.648;8.640;2023-04-04T10:50:31;101311.59;;;7.39;100.00
46087;BME280;31824;49.648;8.640;2023-04-04T10:53:36;101302.63;;;7.44;100.00
46087;BME280;31824;49.648;8.640;2023-04-04T10:56:41;101314.94;;;7.96;100.00
46087;BME280;31824;49.648;8.640;2023-04-04T10:59:56;101301.13;;;7.32;100.00
46087;BME280;31824;49.648;8.640;2023-04-04T11:03:00;101294.97;;;7.89;100.00
46087;BME280;31824;49.648;8.640;2023-04-04T11:06:13;101286.91;;;7.30;100.00
46087;BME280;31824;49.648;8.640;2023-04-04T11:09:46;101285.34;;;8.26;100.00
46087;BME280;31824;49.648;8.640;2023-04-04T11:12:53;101279.47;;;7.84;100.00
46087;BME280;31824;49.648;8.640;2023-04-04T11:16:17;101274.78;;;7.23;100.00
46087;BME280;31824;49.648;8.640;2023-04-04T11:19:23;101279.44;;;7.91;100.00
46087;BME280;31824;49.648;8.640;2023-04-04T11:22:25;101269.34;;;8.01;100.00
46087;BME280;31824;49.648;8.640;2023-04-04T11:25:31;101276.44;;;7.95;100.00
46087;BME280;31824;49.648;8.640;2023-04-04T11:28:44;101261.44;;;8.16;100.00
46087;BME280;31824;49.648;8.640;2023-04-04T11:31:51;101265.22;;;8.10;100.00
46087;BME280;31824;49.648;8.640;2023-04-04T11:34:55;101267.63;;;8.68;100.00
46087;BME280;31824;49.648;8.640;2023-04-04T11:37:58;101256.44;;;8.03;100.00
46087;BME280;31824;49.648;8.640;2023-04-04T11:41:04;101264.50;;;8.56;100.00
46087;BME280;31824;49.648;8.640;2023-04-04T11:44:10;101260.88;;;8.70;100.00
46087;BME280;31824;49.648;8.640;2023-04-04T11:47:12;101259.47;;;8.51;100.00
46087;BME280;31824;49.648;8.640;2023-04-04T11:50:14;101243.66;;;8.72;100.00
46087;BME280;31824;49.648;8.640;2023-04-04T11:53:17;101247.28;;;9.19;100.00
46087;BME280;31824;49.648;8.640;2023-04-04T11:56:20;101239.91;;;8.70;100.00
46087;BME280;31824;49.648;8.640;2023-04-04T11:59:23;101235.53;;;9.16;98.44
46087;BME280;31824;49.648;8.640;2023-04-04T12:02:25;101220.47;;;9.45;100.00
46087;BME280;31824;49.648;8.640;2023-04-04T12:05:33;101222.47;;;8.33;100.00
46087;BME280;31824;49.648;8.640;2023-04-04T12:08:36;101227.22;;;8.14;97.45
46087;BME280;31824;49.648;8.640;2023-04-04T12:11:37;101225.38;;;8.06;98.61
46087;BME280;31824;49.648;8.640;2023-04-04T12:14:43;101228.78;;;8.87;97.88
46087;BME280;31824;49.648;8.640;2023-04-04T12:17:45;101211.59;;;9.52;100.00
46087;BME280;31824;49.648;8.640;2023-04-04T12:20:50;101213.97;;;9.80;100.00
46087;BME280;31824;49.648;8.640;2023-04-04T12:23:54;101212.44;;;10.30;100.00
46087;BME280;31824;49.648;8.640;2023-04-04T12:27:01;101211.84;;;10.49;98.17
46087;BME280;31824;49.648;8.640;2023-04-04T12:30:07;101186.19;;;9.99;100.00
46087;BME280;31824;49.648;8.640;2023-04-04T12:33:15;101203.72;;;9.91;90.64
46087;BME280;31824;49.648;8.640;2023-04-04T12:36:18;101212.50;;;9.75;87.74
46087;BME280;31824;49.648;8.640;2023-04-04T12:39:21;101202.19;;;10.09;100.00
46087;BME280;31824;49.648;8.640;2023-04-04T12:42:24;101193.09;;;9.04;90.35
46087;BME280;31824;49.648;8.640;2023-04-04T12:45:28;101200.59;;;8.77;90.25
46087;BME280;31824;49.648;8.640;2023-04-04T12:48:32;101193.69;;;9.63;94.28
46087;BME280;31824;49.648;8.640;2023-04-04T12:51:37;101191.34;;;10.22;87.91
46087;BME280;31824;49.648;8.640;2023-04-04T12:54:39;101189.69;;;10.06;90.46
46087;BME280;31824;49.648;8.640;2023-04-04T12:57:43;101184.81;;;10.18;90.71
46087;BME280;31824;49.648;8.640;2023-04-04T13:00:47;101178.00;;;10.68;86.57
46087;BME280;31824;49.648;8.640;2023-04-04T13:03:51;101179.06;;;10.13;88.36
46087;BME280;31824;49.648;8.640;2023-04-04T13:06:55;101177.63;;;10.24;83.32
46087;BME280;31824;49.648;8.640;2023-04-04T13:10:01;101175.31;;;10.84;87.08
46087;BME280;31824;49.648;8.640;2023-04-04T13:13:06;101175.63;;;11.45;87.97
46087;BME280;31824;49.648;8.640;2023-04-04T13:16:10;101179.25;;;11.30;85.05
46087;BME280;31824;49.648;8.640;2023-04-04T13:19:12;101162.63;;;11.13;81.39
46087;BME280;31824;49.648;8.640;2023-04-04T13:22:15;101175.72;;;11.80;89.22
46087;BME280;31824;49.648;8.640;2023-04-04T13:25:17;101157.38;;;10.55;84.04
46087;BME280;31824;49.648;8.640;2023-04-04T13:28:18;101153.75;;;11.29;81.56
46087;BME280;31824;49.648;8.640;2023-04-04T13:31:22;101153.47;;;10.76;87.32
46087;BME280;31824;49.648;8.640;2023-04-04T13:34:26;101164.47;;;11.99;84.84
46087;BME280;31824;49.648;8.640;2023-04-04T13:37:28;101140.72;;;10.97;81.29
46087;BME280;31824;49.648;8.640;2023-04-04T13:40:29;101146.75;;;11.89;80.70
46087;BME280;31824;49.648;8.640;2023-04-04T13:43:31;101138.16;;;11.48;90.62
46087;BME280;31824;49.648;8.640;2023-04-04T13:46:35;101141.66;;;11.91;90.16
46087;BME280;31824;49.648;8.640;2023-04-04T13:49:38;101131.88;;;11.90;92.74
46087;BME280;31824;49.648;8.640;2023-04-04T13:52:42;101138.06;;;11.22;86.78
46087;BME280;31824;49.648;8.640;2023-04-04T13:55:46;101128.94;;;11.78;86.78
46087;BME280;31824;49.648;8.640;2023-04-04T13:59:10;101131.25;;;11.66;90.46
46087;BME280;31824;49.648;8.640;2023-04-04T14:02:18;101129.72;;;11.26;89.03
46087;BME280;31824;49.648;8.640;2023-04-04T14:05:21;101121.25;;;12.14;86.05
46087;BME280;31824;49.648;8.640;2023-04-04T14:08:23;101116.13;;;10.63;85.74
46087;BME280;31824;49.648;8.640;2023-04-04T14:11:25;101116.41;;;11.24;83.73
46087;BME280;31824;49.648;8.640;2023-04-04T14:14:31;101111.91;;;11.14;87.58
46087;BME280;31824;49.648;8.640;2023-04-04T14:17:41;101106.50;;;12.97;80.93
46087;BME280;31824;49.648;8.640;2023-04-04T14:20:47;101104.34;;;12.30;86.24
46087;BME280;31824;49.648;8.640;2023-04-04T14:23:49;101099.09;;;12.21;77.88
46087;BME280;31824;49.648;8.640;2023-04-04T14:26:51;101092.22;;;12.49;81.02
46087;BME280;31824;49.648;8.640;2023-04-04T14:29:53;101100.72;;;11.51;84.51
46087;BME280;31824;49.648;8.640;2023-04-04T14:32:56;101087.50;;;12.10;86.18
46087;BME280;31824;49.648;8.640;2023-04-04T14:35:58;101089.47;;;12.13;79.69
46087;BME280;31824;49.648;8.640;2023-04-04T14:39:03;101085.56;;;11.65;83.51
46087;BME280;31824;49.648;8.640;2023-04-04T14:42:05;101078.44;;;12.97;81.85
46087;BME280;31824;49.648;8.640;2023-04-04T14:45:10;101072.84;;;14.35;78.65
46087;BME280;31824;49.648;8.640;2023-04-04T14:48:14;101066.72;;;13.88;80.87
46087;BME280;31824;49.648;8.640;2023-04-04T14:51:17;101074.25;;;12.45;79.72
46087;BME280;31824;49.648;8.640;2023-04-04T14:54:20;101075.31;;;13.02;72.05
46087;BME280;31824;49.648;8.640;2023-04-04T14:57:22;101080.81;;;14.45;73.57
46087;BME280;31824;49.648;8.640;2023-04-04T15:00:24;101061.53;;;12.41;80.17
46087;BME280;31824;49.648;8.640;2023-04-04T15:03:28;101067.69;;;13.32;78.87
46087;BME280;31824;49.648;8.640;2023-04-04T15:06:31;101068.28;;;13.85;69.11
46087;BME280;31824;49.648;8.640;2023-04-04T15:09:36;101057.81;;;13.77;67.11
46087;BME280;31824;49.648;8.640;2023-04-04T15:12:42;101068.47;;;13.04;71.83
46087;BME280;31824;49.648;8.640;2023-04-04T15:15:44;101058.84;;;13.60;76.38
46087;BME280;31824;49.648;8.640;2023-04-04T15:18:48;101065.34;;;13.63;71.92
46087;BME280;31824;49.648;8.640;2023-04-04T15:21:50;101062.03;;;12.46;80.18
46087;BME280;31824;49.648;8.640;2023-04-04T15:24:56;101056.16;;;13.88;79.64
46087;BME280;31824;49.648;8.640;2023-04-04T15:27:58;101052.38;;;13.56;72.84
46087;BME280;31824;49.648;8.640;2023-04-04T15:31:07;101053.66;;;14.08;71.62
46087;BME280;31824;49.648;8.640;2023-04-04T15:34:11;101057.44;;;12.71;74.91
46087;BME280;31824;49.648;8.640;2023-04-04T15:37:13;101050.06;;;12.49;78.28
46087;BME280;31824;49.648;8.640;2023-04-04T15:40:15;101051.63;;;11.60;76.21
46087;BME280;31824;49.648;8.640;2023-04-04T15:43:17;101046.66;;;11.37;81.18
46087;BME280;31824;49.648;8.640;2023-04-04T15:46:19;101051.44;;;11.23;77.98
46087;BME280;31824;49.648;8.640;2023-04-04T15:49:22;101027.47;;;11.38;84.38
46087;BME280;31824;49.648;8.640;2023-04-04T15:52:24;101032.25;;;12.38;74.98
46087;BME280;31824;49.648;8.640;2023-04-04T15:55:27;101034.63;;;11.91;73.76
46087;BME280;31824;49.648;8.640;2023-04-04T15:58:29;101032.59;;;12.32;73.84
46087;BME280;31824;49.648;8.640;2023-04-04T16:01:32;101034.34;;;12.14;80.71
46087;BME280;31824;49.648;8.640;2023-04-04T16:04:38;101030.75;;;11.88;75.60